sensor_id;sensor_type;location;lat;lon;timestamp;temperature;humidity
7942;HTU21D;4016;50.758;7.150;2022-08-01T00:03:07;22.40;92.21
7942;HTU21D;4016;50.758;7.150;2022-08-01T00:08:08;22.49;91.79
7942;HTU21D;4016;50.758;7.150;2022-08-01T00:13:08;22.38;92.32
7942;HTU21D;4016;50.758;7.150;2022-08-01T00:18:09;22.29;93.19
7942;HTU21D;4016;50.758;7.150;2022-08-01T00:23:09;22.35;93.14
7942;HTU21D;4016;50.758;7.150;2022-08-01T00:28:09;22.34;92.92
7942;HTU21D;4016;50.758;7.150;2022-08-01T00:33:10;22.40;92.50
7942;HTU21D;4016;50.758;7.150;2022-08-01T00:38:10;22.31;93.02
7942;HTU21D;4016;50.758;7.150;2022-08-01T00:43:11;22.26;93.33
7942;HTU21D;4016;50.758;7.150;2022-08-01T00:48:11;22.28;93.67
7942;HTU21D;4016;50.758;7.150;2022-08-01T00:53:12;22.21;93.83
7942;HTU21D;4016;50.758;7.150;2022-08-01T00:58:13;22.33;93.59
7942;HTU21D;4016;50.758;7.150;2022-08-01T01:03:13;22.33;93.60
7942;HTU21D;4016;50.758;7.150;2022-08-01T01:08:19;22.24;94.08
7942;HTU21D;4016;50.758;7.150;2022-08-01T01:13:37;22.14;94.75
7942;HTU21D;4016;50.758;7.150;2022-08-01T01:18:47;22.09;95.04
7942;HTU21D;4016;50.758;7.150;2022-08-01T01:29:31;22.12;95.30
7942;HTU21D;4016;50.758;7.150;2022-08-01T01:34:37;21.94;96.89
7942;HTU21D;4016;50.758;7.150;2022-08-01T01:39:38;22.12;95.51
7942;HTU21D;4016;50.758;7.150;2022-08-01T01:44:41;22.01;96.43
7942;HTU21D;4016;50.758;7.150;2022-08-01T01:49:47;21.87;97.93
7942;HTU21D;4016;50.758;7.150;2022-08-01T01:54:50;21.87;98.27
7942;HTU21D;4016;50.758;7.150;2022-08-01T01:59:52;21.88;99.22
7942;HTU21D;4016;50.758;7.150;2022-08-01T02:04:53;21.62;101.23
7942;HTU21D;4016;50.758;7.150;2022-08-01T02:09:56;21.60;101.57
7942;HTU21D;4016;50.758;7.150;2022-08-01T02:14:57;21.50;101.60
7942;HTU21D;4016;50.758;7.150;2022-08-01T02:19:58;21.49;102.19
7942;HTU21D;4016;50.758;7.150;2022-08-01T02:25:07;21.42;102.68
7942;HTU21D;4016;50.758;7.150;2022-08-01T02:30:12;21.45;103.06
7942;HTU21D;4016;50.758;7.150;2022-08-01T02:35:27;21.40;103.50
7942;HTU21D;4016;50.758;7.150;2022-08-01T02:40:29;21.44;103.32
7942;HTU21D;4016;50.758;7.150;2022-08-01T02:45:32;21.40;103.31
7942;HTU21D;4016;50.758;7.150;2022-08-01T02:50:36;21.44;103.31
7942;HTU21D;4016;50.758;7.150;2022-08-01T02:55:41;21.34;104.18
7942;HTU21D;4016;50.758;7.150;2022-08-01T03:00:43;21.27;104.44
7942;HTU21D;4016;50.758;7.150;2022-08-01T03:05:45;21.18;105.05
7942;HTU21D;4016;50.758;7.150;2022-08-01T03:10:46;21.20;104.97
7942;HTU21D;4016;50.758;7.150;2022-08-01T03:15:49;21.30;104.37
7942;HTU21D;4016;50.758;7.150;2022-08-01T03:20:52;21.14;105.59
7942;HTU21D;4016;50.758;7.150;2022-08-01T03:25:54;21.13;105.43
7942;HTU21D;4016;50.758;7.150;2022-08-01T03:30:55;21.07;105.95
7942;HTU21D;4016;50.758;7.150;2022-08-01T03:35:56;21.02;106.29
7942;HTU21D;4016;50.758;7.150;2022-08-01T03:41:02;21.32;105.08
7942;HTU21D;4016;50.758;7.150;2022-08-01T03:46:07;21.09;106.21
7942;HTU21D;4016;50.758;7.150;2022-08-01T03:51:10;21.08;106.33
7942;HTU21D;4016;50.758;7.150;2022-08-01T03:56:13;21.29;105.45
7942;HTU21D;4016;50.758;7.150;2022-08-01T04:01:17;21.18;105.89
7942;HTU21D;4016;50.758;7.150;2022-08-01T04:06:17;21.02;106.79
7942;HTU21D;4016;50.758;7.150;2022-08-01T04:11:18;20.99;107.08
7942;HTU21D;4016;50.758;7.150;2022-08-01T04:16:19;21.00;106.75
7942;HTU21D;4016;50.758;7.150;2022-08-01T04:21:25;21.00;106.89
7942;HTU21D;4016;50.758;7.150;2022-08-01T04:26:29;21.04;106.99
7942;HTU21D;4016;50.758;7.150;2022-08-01T04:31:31;21.05;106.95
7942;HTU21D;4016;50.758;7.150;2022-08-01T04:36:33;20.98;107.27
7942;HTU21D;4016;50.758;7.150;2022-08-01T04:41:36;21.02;107.23
7942;HTU21D;4016;50.758;7.150;2022-08-01T04:46:37;21.11;106.70
7942;HTU21D;4016;50.758;7.150;2022-08-01T04:51:50;21.08;106.64
7942;HTU21D;4016;50.758;7.150;2022-08-01T04:56:51;21.11;106.84
7942;HTU21D;4016;50.758;7.150;2022-08-01T05:01:53;21.18;106.60
7942;HTU21D;4016;50.758;7.150;2022-08-01T05:06:53;21.33;106.01
7942;HTU21D;4016;50.758;7.150;2022-08-01T05:11:54;21.40;105.71
7942;HTU21D;4016;50.758;7.150;2022-08-01T05:16:54;21.30;106.30
7942;HTU21D;4016;50.758;7.150;2022-08-01T05:21:55;21.42;105.49
7942;HTU21D;4016;50.758;7.150;2022-08-01T05:26:56;21.34;106.17
7942;HTU21D;4016;50.758;7.150;2022-08-01T05:31:57;21.36;106.30
7942;HTU21D;4016;50.758;7.150;2022-08-01T05:36:59;21.49;105.37
7942;HTU21D;4016;50.758;7.150;2022-08-01T05:41:59;21.44;105.93
7942;HTU21D;4016;50.758;7.150;2022-08-01T05:47:00;21.40;106.42
7942;HTU21D;4016;50.758;7.150;2022-08-01T05:52:00;21.24;107.13
7942;HTU21D;4016;50.758;7.150;2022-08-01T05:57:01;21.23;107.62
7942;HTU21D;4016;50.758;7.150;2022-08-01T06:02:02;21.28;108.02
7942;HTU21D;4016;50.758;7.150;2022-08-01T06:07:03;21.34;107.08
7942;HTU21D;4016;50.758;7.150;2022-08-01T06:12:03;21.39;106.93
7942;HTU21D;4016;50.758;7.150;2022-08-01T06:17:04;21.29;107.77
7942;HTU21D;4016;50.758;7.150;2022-08-01T06:22:04;21.34;107.41
7942;HTU21D;4016;50.758;7.150;2022-08-01T06:27:05;21.42;107.08
7942;HTU21D;4016;50.758;7.150;2022-08-01T06:32:05;21.54;106.51
7942;HTU21D;4016;50.758;7.150;2022-08-01T06:37:06;21.49;106.48
7942;HTU21D;4016;50.758;7.150;2022-08-01T06:42:07;21.62;106.59
7942;HTU21D;4016;50.758;7.150;2022-08-01T06:47:07;21.73;105.66
7942;HTU21D;4016;50.758;7.150;2022-08-01T06:52:07;21.65;105.59
7942;HTU21D;4016;50.758;7.150;2022-08-01T06:57:08;21.65;107.54
7942;HTU21D;4016;50.758;7.150;2022-08-01T07:02:08;21.78;105.29
7942;HTU21D;4016;50.758;7.150;2022-08-01T07:07:09;21.89;104.98
7942;HTU21D;4016;50.758;7.150;2022-08-01T07:12:09;21.94;104.40
7942;HTU21D;4016;50.758;7.150;2022-08-01T07:17:10;21.94;104.53
7942;HTU21D;4016;50.758;7.150;2022-08-01T07:22:10;22.17;103.79
7942;HTU21D;4016;50.758;7.150;2022-08-01T07:27:10;22.24;103.41
7942;HTU21D;4016;50.758;7.150;2022-08-01T07:32:11;22.41;100.99
7942;HTU21D;4016;50.758;7.150;2022-08-01T07:37:11;22.50;101.61
7942;HTU21D;4016;50.758;7.150;2022-08-01T07:42:11;22.40;102.06
7942;HTU21D;4016;50.758;7.150;2022-08-01T07:47:12;22.52;100.61
7942;HTU21D;4016;50.758;7.150;2022-08-01T07:52:12;22.78;100.06
7942;HTU21D;4016;50.758;7.150;2022-08-01T07:57:12;23.02;96.65
7942;HTU21D;4016;50.758;7.150;2022-08-01T08:02:13;23.28;96.02
7942;HTU21D;4016;50.758;7.150;2022-08-01T08:07:13;23.31;94.94
7942;HTU21D;4016;50.758;7.150;2022-08-01T08:12:14;23.35;93.65
7942;HTU21D;4016;50.758;7.150;2022-08-01T08:17:14;23.29;94.15
7942;HTU21D;4016;50.758;7.150;2022-08-01T08:22:14;23.56;92.63
7942;HTU21D;4016;50.758;7.150;2022-08-01T08:27:15;23.76;89.35
7942;HTU21D;4016;50.758;7.150;2022-08-01T08:32:15;24.00;88.96
7942;HTU21D;4016;50.758;7.150;2022-08-01T08:37:16;24.19;87.94
7942;HTU21D;4016;50.758;7.150;2022-08-01T08:42:18;24.35;86.44
7942;HTU21D;4016;50.758;7.150;2022-08-01T08:47:18;23.98;88.89
7942;HTU21D;4016;50.758;7.150;2022-08-01T08:52:20;23.72;90.67
7942;HTU21D;4016;50.758;7.150;2022-08-01T08:57:21;23.77;89.04
7942;HTU21D;4016;50.758;7.150;2022-08-01T09:02:22;24.18;87.89
7942;HTU21D;4016;50.758;7.150;2022-08-01T09:07:22;24.46;85.45
7942;HTU21D;4016;50.758;7.150;2022-08-01T09:12:25;24.89;83.23
7942;HTU21D;4016;50.758;7.150;2022-08-01T09:17:25;25.02;83.19
7942;HTU21D;4016;50.758;7.150;2022-08-01T09:22:30;25.52;82.04
7942;HTU21D;4016;50.758;7.150;2022-08-01T09:27:33;25.75;78.69
7942;HTU21D;4016;50.758;7.150;2022-08-01T09:32:34;25.84;78.08
7942;HTU21D;4016;50.758;7.150;2022-08-01T09:37:34;26.08;77.15
7942;HTU21D;4016;50.758;7.150;2022-08-01T09:42:35;26.23;76.75
7942;HTU21D;4016;50.758;7.150;2022-08-01T09:47:39;26.75;74.73
7942;HTU21D;4016;50.758;7.150;2022-08-01T09:52:39;27.39;71.94
7942;HTU21D;4016;50.758;7.150;2022-08-01T09:57:54;27.61;69.04
7942;HTU21D;4016;50.758;7.150;2022-08-01T10:02:55;27.52;69.24
7942;HTU21D;4016;50.758;7.150;2022-08-01T10:08:00;27.40;69.39
7942;HTU21D;4016;50.758;7.150;2022-08-01T10:13:02;27.35;70.25
7942;HTU21D;4016;50.758;7.150;2022-08-01T10:18:06;27.80;68.09
7942;HTU21D;4016;50.758;7.150;2022-08-01T10:23:07;28.06;66.65
7942;HTU21D;4016;50.758;7.150;2022-08-01T10:28:14;28.54;63.61
7942;HTU21D;4016;50.758;7.150;2022-08-01T10:33:17;27.64;65.54
7942;HTU21D;4016;50.758;7.150;2022-08-01T10:38:18;27.32;66.97
7942;HTU21D;4016;50.758;7.150;2022-08-01T10:43:18;27.19;67.24
7942;HTU21D;4016;50.758;7.150;2022-08-01T10:48:24;27.35;66.09
7942;HTU21D;4016;50.758;7.150;2022-08-01T10:53:28;27.17;66.61
7942;HTU21D;4016;50.758;7.150;2022-08-01T10:58:39;27.14;66.58
7942;HTU21D;4016;50.758;7.150;2022-08-01T11:03:58;27.40;65.66
7942;HTU21D;4016;50.758;7.150;2022-08-01T11:14:11;28.62;59.65
7942;HTU21D;4016;50.758;7.150;2022-08-01T11:19:12;28.95;58.34
7942;HTU21D;4016;50.758;7.150;2022-08-01T11:24:13;28.95;53.72
7942;HTU21D;4016;50.758;7.150;2022-08-01T11:29:16;28.62;55.31
7942;HTU21D;4016;50.758;7.150;2022-08-01T11:34:16;28.50;56.84
7942;HTU21D;4016;50.758;7.150;2022-08-01T11:39:17;28.74;53.72
7942;HTU21D;4016;50.758;7.150;2022-08-01T11:44:20;29.20;53.34
7942;HTU21D;4016;50.758;7.150;2022-08-01T11:49:30;29.46;52.07
7942;HTU21D;4016;50.758;7.150;2022-08-01T11:54:52;28.15;53.39
7942;HTU21D;4016;50.758;7.150;2022-08-01T11:59:54;27.65;56.67
7942;HTU21D;4016;50.758;7.150;2022-08-01T12:05:00;27.08;60.21
7942;HTU21D;4016;50.758;7.150;2022-08-01T12:15:09;27.01;59.28
7942;HTU21D;4016;50.758;7.150;2022-08-01T12:20:12;27.42;57.64
7942;HTU21D;4016;50.758;7.150;2022-08-01T12:25:16;27.98;57.18
7942;HTU21D;4016;50.758;7.150;2022-08-01T12:30:19;28.05;56.47
7942;HTU21D;4016;50.758;7.150;2022-08-01T12:35:27;28.27;55.81
7942;HTU21D;4016;50.758;7.150;2022-08-01T12:40:35;28.46;55.86
7942;HTU21D;4016;50.758;7.150;2022-08-01T12:45:36;28.57;55.36
7942;HTU21D;4016;50.758;7.150;2022-08-01T12:50:51;28.43;53.64
7942;HTU21D;4016;50.758;7.150;2022-08-01T12:55:54;28.38;55.04
7942;HTU21D;4016;50.758;7.150;2022-08-01T13:01:09;28.59;52.69
7942;HTU21D;4016;50.758;7.150;2022-08-01T13:06:12;28.63;52.70
7942;HTU21D;4016;50.758;7.150;2022-08-01T13:11:15;28.23;52.74
7942;HTU21D;4016;50.758;7.150;2022-08-01T13:16:24;28.12;52.96
7942;HTU21D;4016;50.758;7.150;2022-08-01T13:21:27;28.67;47.48
7942;HTU21D;4016;50.758;7.150;2022-08-01T13:31:38;28.73;47.04
7942;HTU21D;4016;50.758;7.150;2022-08-01T13:36:40;28.45;47.55
7942;HTU21D;4016;50.758;7.150;2022-08-01T13:41:41;28.54;49.79
7942;HTU21D;4016;50.758;7.150;2022-08-01T13:46:42;28.18;50.47
7942;HTU21D;4016;50.758;7.150;2022-08-01T13:51:43;28.19;51.59
7942;HTU21D;4016;50.758;7.150;2022-08-01T13:56:43;28.26;50.33
7942;HTU21D;4016;50.758;7.150;2022-08-01T14:01:44;28.40;50.63
7942;HTU21D;4016;50.758;7.150;2022-08-01T14:06:44;28.39;49.86
7942;HTU21D;4016;50.758;7.150;2022-08-01T14:11:45;28.44;50.51
7942;HTU21D;4016;50.758;7.150;2022-08-01T14:16:46;28.21;49.22
7942;HTU21D;4016;50.758;7.150;2022-08-01T14:21:46;27.88;48.73
7942;HTU21D;4016;50.758;7.150;2022-08-01T14:26:46;27.74;50.03
7942;HTU21D;4016;50.758;7.150;2022-08-01T14:31:47;27.96;49.04
7942;HTU21D;4016;50.758;7.150;2022-08-01T14:36:47;28.08;46.13
7942;HTU21D;4016;50.758;7.150;2022-08-01T14:41:48;28.09;46.07
7942;HTU21D;4016;50.758;7.150;2022-08-01T14:46:48;28.24;45.60
7942;HTU21D;4016;50.758;7.150;2022-08-01T14:51:50;28.37;46.26
7942;HTU21D;4016;50.758;7.150;2022-08-01T14:56:50;28.50;47.02
7942;HTU21D;4016;50.758;7.150;2022-08-01T15:01:52;28.56;46.06
7942;HTU21D;4016;50.758;7.150;2022-08-01T15:06:53;28.52;46.19
7942;HTU21D;4016;50.758;7.150;2022-08-01T15:11:53;28.41;45.90
7942;HTU21D;4016;50.758;7.150;2022-08-01T15:16:54;28.25;45.29
7942;HTU21D;4016;50.758;7.150;2022-08-01T15:21:54;28.18;46.49
7942;HTU21D;4016;50.758;7.150;2022-08-01T15:26:54;28.59;46.56
7942;HTU21D;4016;50.758;7.150;2022-08-01T15:31:55;28.52;43.26
7942;HTU21D;4016;50.758;7.150;2022-08-01T15:36:55;28.38;43.64
7942;HTU21D;4016;50.758;7.150;2022-08-01T15:42:00;28.41;44.39
7942;HTU21D;4016;50.758;7.150;2022-08-01T15:47:02;28.58;43.92
7942;HTU21D;4016;50.758;7.150;2022-08-01T15:52:04;28.25;42.54
7942;HTU21D;4016;50.758;7.150;2022-08-01T15:57:04;28.23;42.54
7942;HTU21D;4016;50.758;7.150;2022-08-01T16:02:05;28.06;42.85
7942;HTU21D;4016;50.758;7.150;2022-08-01T16:07:05;28.02;42.55
7942;HTU21D;4016;50.758;7.150;2022-08-01T16:12:07;27.80;43.17
7942;HTU21D;4016;50.758;7.150;2022-08-01T16:17:09;27.79;43.21
7942;HTU21D;4016;50.758;7.150;2022-08-01T16:22:09;27.73;43.51
7942;HTU21D;4016;50.758;7.150;2022-08-01T16:27:09;27.57;44.29
7942;HTU21D;4016;50.758;7.150;2022-08-01T16:32:10;27.61;44.85
7942;HTU21D;4016;50.758;7.150;2022-08-01T16:37:10;27.66;45.19
7942;HTU21D;4016;50.758;7.150;2022-08-01T16:42:11;27.39;46.05
7942;HTU21D;4016;50.758;7.150;2022-08-01T16:47:12;27.22;47.57
7942;HTU21D;4016;50.758;7.150;2022-08-01T16:52:13;27.36;47.26
7942;HTU21D;4016;50.758;7.150;2022-08-01T16:57:13;27.35;47.99
7942;HTU21D;4016;50.758;7.150;2022-08-01T17:02:13;27.29;48.54
7942;HTU21D;4016;50.758;7.150;2022-08-01T17:07:14;27.06;49.67
7942;HTU21D;4016;50.758;7.150;2022-08-01T17:12:14;26.94;51.51
7942;HTU21D;4016;50.758;7.150;2022-08-01T17:17:15;26.65;53.81
7942;HTU21D;4016;50.758;7.150;2022-08-01T17:22:15;26.49;55.29
7942;HTU21D;4016;50.758;7.150;2022-08-01T17:27:16;26.11;57.71
7942;HTU21D;4016;50.758;7.150;2022-08-01T17:32:16;25.97;58.58
7942;HTU21D;4016;50.758;7.150;2022-08-01T17:37:16;26.02;59.01
7942;HTU21D;4016;50.758;7.150;2022-08-01T17:42:17;26.34;57.46
7942;HTU21D;4016;50.758;7.150;2022-08-01T17:47:17;27.00;54.66
7942;HTU21D;4016;50.758;7.150;2022-08-01T17:52:18;27.23;54.32
7942;HTU21D;4016;50.758;7.150;2022-08-01T17:57:19;26.90;56.26
7942;HTU21D;4016;50.758;7.150;2022-08-01T18:02:20;26.71;57.11
7942;HTU21D;4016;50.758;7.150;2022-08-01T18:07:21;26.50;57.48
7942;HTU21D;4016;50.758;7.150;2022-08-01T18:12:21;26.38;58.01
7942;HTU21D;4016;50.758;7.150;2022-08-01T18:17:21;26.15;58.60
7942;HTU21D;4016;50.758;7.150;2022-08-01T18:22:22;25.62;61.13
7942;HTU21D;4016;50.758;7.150;2022-08-01T18:27:23;25.42;62.17
7942;HTU21D;4016;50.758;7.150;2022-08-01T18:32:23;25.16;63.46
7942;HTU21D;4016;50.758;7.150;2022-08-01T18:37:23;25.08;64.34
7942;HTU21D;4016;50.758;7.150;2022-08-01T18:42:24;24.83;65.17
7942;HTU21D;4016;50.758;7.150;2022-08-01T18:47:24;24.77;65.63
7942;HTU21D;4016;50.758;7.150;2022-08-01T18:52:25;24.62;66.40
7942;HTU21D;4016;50.758;7.150;2022-08-01T18:57:28;24.46;67.35
7942;HTU21D;4016;50.758;7.150;2022-08-01T19:02:28;24.50;66.94
7942;HTU21D;4016;50.758;7.150;2022-08-01T19:07:28;24.27;67.93
7942;HTU21D;4016;50.758;7.150;2022-08-01T19:12:29;24.06;68.94
7942;HTU21D;4016;50.758;7.150;2022-08-01T19:17:29;23.87;71.03
7942;HTU21D;4016;50.758;7.150;2022-08-01T19:22:30;23.72;71.73
7942;HTU21D;4016;50.758;7.150;2022-08-01T19:27:32;23.56;73.31
7942;HTU21D;4016;50.758;7.150;2022-08-01T19:32:34;23.37;74.43
7942;HTU21D;4016;50.758;7.150;2022-08-01T19:37:37;23.13;76.00
7942;HTU21D;4016;50.758;7.150;2022-08-01T19:42:43;22.96;77.56
7942;HTU21D;4016;50.758;7.150;2022-08-01T19:47:43;22.83;78.14
7942;HTU21D;4016;50.758;7.150;2022-08-01T19:52:44;22.62;80.03
7942;HTU21D;4016;50.758;7.150;2022-08-01T19:57:48;22.48;80.95
7942;HTU21D;4016;50.758;7.150;2022-08-01T20:02:49;22.43;81.75
7942;HTU21D;4016;50.758;7.150;2022-08-01T20:07:52;22.13;83.53
7942;HTU21D;4016;50.758;7.150;2022-08-01T20:12:55;21.98;85.00
7942;HTU21D;4016;50.758;7.150;2022-08-01T20:17:56;21.76;86.70
7942;HTU21D;4016;50.758;7.150;2022-08-01T20:22:58;21.60;88.03
7942;HTU21D;4016;50.758;7.150;2022-08-01T20:27:58;21.58;89.26
7942;HTU21D;4016;50.758;7.150;2022-08-01T20:32:59;21.42;89.86
7942;HTU21D;4016;50.758;7.150;2022-08-01T20:38:00;21.22;91.42
7942;HTU21D;4016;50.758;7.150;2022-08-01T20:43:01;21.00;92.82
7942;HTU21D;4016;50.758;7.150;2022-08-01T20:48:05;20.96;93.16
7942;HTU21D;4016;50.758;7.150;2022-08-01T20:53:06;20.72;94.62
7942;HTU21D;4016;50.758;7.150;2022-08-01T20:58:07;20.46;95.27
7942;HTU21D;4016;50.758;7.150;2022-08-01T21:03:19;20.30;96.43
7942;HTU21D;4016;50.758;7.150;2022-08-01T21:08:23;20.16;96.94
7942;HTU21D;4016;50.758;7.150;2022-08-01T21:13:39;20.11;97.32
7942;HTU21D;4016;50.758;7.150;2022-08-01T21:29:05;19.54;100.02
7942;HTU21D;4016;50.758;7.150;2022-08-01T21:34:05;19.41;101.25
7942;HTU21D;4016;50.758;7.150;2022-08-01T21:39:07;19.25;102.70
7942;HTU21D;4016;50.758;7.150;2022-08-01T21:44:08;19.12;103.22
7942;HTU21D;4016;50.758;7.150;2022-08-01T21:49:13;18.95;104.14
7942;HTU21D;4016;50.758;7.150;2022-08-01T21:54:27;18.88;104.96
7942;HTU21D;4016;50.758;7.150;2022-08-01T22:05:11;18.64;106.14
7942;HTU21D;4016;50.758;7.150;2022-08-01T22:10:16;18.47;106.85
7942;HTU21D;4016;50.758;7.150;2022-08-01T22:15:18;18.35;107.55
7942;HTU21D;4016;50.758;7.150;2022-08-01T22:20:20;18.25;108.13
7942;HTU21D;4016;50.758;7.150;2022-08-01T22:25:22;18.15;108.65
7942;HTU21D;4016;50.758;7.150;2022-08-01T22:30:23;18.04;109.14
7942;HTU21D;4016;50.758;7.150;2022-08-01T22:35:24;17.99;109.39
7942;HTU21D;4016;50.758;7.150;2022-08-01T22:40:25;17.87;109.73
7942;HTU21D;4016;50.758;7.150;2022-08-01T22:45:47;17.76;109.81
7942;HTU21D;4016;50.758;7.150;2022-08-01T22:50:55;17.63;110.85
7942;HTU21D;4016;50.758;7.150;2022-08-01T22:56:00;17.52;111.27
7942;HTU21D;4016;50.758;7.150;2022-08-01T23:01:03;17.40;111.83
7942;HTU21D;4016;50.758;7.150;2022-08-01T23:11:28;17.25;112.26
7942;HTU21D;4016;50.758;7.150;2022-08-01T23:16:29;17.18;111.83
7942;HTU21D;4016;50.758;7.150;2022-08-01T23:21:31;17.20;112.29
7942;HTU21D;4016;50.758;7.150;2022-08-01T23:26:32;17.09;111.94
7942;HTU21D;4016;50.758;7.150;2022-08-01T23:31:33;17.00;112.56
7942;HTU21D;4016;50.758;7.150;2022-08-01T23:36:34;16.93;113.48
7942;HTU21D;4016;50.758;7.150;2022-08-01T23:41:35;16.81;113.41
7942;HTU21D;4016;50.758;7.150;2022-08-01T23:46:35;16.77;113.58
7942;HTU21D;4016;50.758;7.150;2022-08-01T23:51:36;16.64;113.58
7942;HTU21D;4016;50.758;7.150;2022-08-01T23:56:36;16.57;113.49
